createdAt,value
2022-11-22T00:02:23.708Z,9.75
2022-11-22T00:04:50.259Z,6.47
2022-11-22T00:07:16.828Z,2.58
2022-11-22T00:09:43.426Z,6.28
2022-11-22T00:12:09.885Z,4.78
2022-11-22T00:14:36.409Z,4.63
2022-11-22T00:17:02.866Z,5.53
2022-11-22T00:19:29.483Z,4.07
2022-11-22T00:21:56.105Z,3.35
2022-11-22T00:24:22.567Z,5.15
2022-11-22T00:26:48.993Z,5.78
2022-11-22T00:29:16.084Z,4.45
2022-11-22T00:31:42.587Z,5.93
2022-11-22T00:34:09.142Z,5.35
2022-11-22T00:36:35.654Z,4.65
2022-11-22T00:39:02.078Z,5.40
2022-11-22T00:41:28.496Z,2.13
2022-11-22T00:43:54.920Z,2.17
2022-11-22T00:46:21.340Z,1.90
2022-11-22T00:48:47.764Z,5.65
2022-11-22T00:51:14.390Z,5.93
2022-11-22T00:53:41.022Z,3.13
2022-11-22T00:56:07.502Z,6.82
2022-11-22T00:58:34.325Z,6.00
2022-11-22T01:01:00.867Z,8.75
2022-11-22T01:03:27.421Z,7.72
2022-11-22T01:05:53.931Z,3.22
2022-11-22T01:08:20.383Z,6.65
2022-11-22T01:10:46.907Z,4.32
2022-11-22T01:13:13.371Z,3.95
2022-11-22T01:15:39.795Z,5.95
2022-11-22T01:18:06.260Z,8.13
2022-11-22T01:20:32.757Z,4.35
2022-11-22T01:22:59.220Z,5.10
2022-11-22T01:25:25.618Z,4.43
2022-11-22T01:27:52.240Z,6.07
2022-11-22T01:30:18.719Z,6.25
2022-11-22T01:32:45.136Z,7.63
2022-11-22T01:35:11.714Z,4.25
2022-11-22T01:37:38.180Z,4.20
2022-11-22T01:40:05.332Z,5.90
2022-11-22T01:42:50.270Z,5.70
2022-11-22T01:45:35.041Z,7.50
2022-11-22T01:48:12.221Z,1.55
2022-11-22T01:50:43.133Z,5.45
2022-11-22T01:53:17.732Z,7.75
2022-11-22T01:55:45.422Z,7.20
2022-11-22T01:58:15.234Z,8.57
2022-11-22T02:00:43.525Z,6.35
2022-11-22T02:03:13.741Z,4.60
2022-11-22T02:05:40.247Z,4.88
2022-11-22T02:08:20.839Z,4.28
2022-11-22T02:10:50.389Z,3.25
2022-11-22T02:13:19.096Z,7.07
2022-11-22T02:15:45.616Z,5.88
2022-11-22T02:18:12.141Z,3.83
2022-11-22T02:20:39.757Z,6.05
2022-11-22T02:23:09.108Z,4.68
2022-11-22T02:25:41.406Z,6.97
2022-11-22T02:28:13.475Z,5.43
2022-11-22T02:30:41.377Z,4.07
2022-11-22T02:33:08.407Z,7.80
2022-11-22T02:35:35.149Z,6.90
2022-11-22T02:38:04.406Z,7.63
2022-11-22T02:43:15.652Z,4.30
2022-11-22T02:45:42.192Z,5.97
2022-11-22T02:48:12.235Z,3.28
2022-11-22T02:50:39.288Z,2.88
2022-11-22T02:53:06.488Z,4.97
2022-11-22T02:55:33.510Z,7.50
2022-11-22T02:57:59.988Z,6.03
2022-11-22T03:00:26.863Z,4.93
2022-11-22T03:02:53.494Z,4.68
2022-11-22T03:05:19.923Z,5.72
2022-11-22T03:07:46.427Z,3.47
2022-11-22T03:10:12.884Z,9.07
2022-11-22T03:12:39.377Z,6.60
2022-11-22T03:15:06.243Z,7.80
2022-11-22T03:17:32.677Z,8.13
2022-11-22T03:19:59.192Z,5.60
2022-11-22T03:22:25.651Z,4.72
2022-11-22T03:24:52.037Z,9.27
2022-11-22T03:27:18.527Z,4.95
2022-11-22T03:29:45.088Z,4.80
2022-11-22T03:32:11.549Z,6.28
2022-11-22T03:34:38.121Z,4.18
2022-11-22T03:37:04.543Z,4.85
2022-11-22T03:39:31.195Z,5.97
2022-11-22T03:41:57.935Z,6.20
2022-11-22T03:44:24.426Z,4.07
2022-11-22T03:46:50.870Z,8.15
2022-11-22T03:49:17.398Z,3.92
2022-11-22T03:51:43.875Z,6.65
2022-11-22T03:54:10.401Z,8.70
2022-11-22T03:56:36.805Z,6.45
2022-11-22T03:59:03.276Z,7.63
2022-11-22T04:01:29.781Z,6.03
2022-11-22T04:03:56.293Z,5.47
2022-11-22T04:06:22.771Z,12.93
2022-11-22T04:08:49.412Z,7.68
2022-11-22T04:11:15.870Z,4.30
2022-11-22T04:14:00.629Z,5.18
2022-11-22T04:16:27.063Z,5.35
2022-11-22T04:18:53.580Z,7.38
2022-11-22T04:21:35.368Z,5.88
2022-11-22T04:24:26.695Z,7.85
2022-11-22T04:26:53.754Z,6.18
2022-11-22T04:29:20.965Z,3.38
2022-11-22T04:32:07.165Z,7.43
2022-11-22T04:34:34.300Z,8.43
2022-11-22T04:37:01.456Z,5.78
2022-11-22T04:39:28.398Z,9.00
2022-11-22T04:42:14.619Z,9.18
2022-11-22T04:44:42.528Z,4.75
2022-11-22T04:47:10.057Z,9.07
2022-11-22T04:49:36.813Z,7.38
2022-11-22T04:52:22.889Z,8.07
2022-11-22T04:54:49.329Z,9.77
2022-11-22T04:57:15.858Z,9.98
2022-11-22T04:59:42.295Z,4.60
2022-11-22T05:02:08.740Z,4.45
2022-11-22T05:04:35.196Z,8.48
2022-11-22T05:07:02.139Z,5.60
2022-11-22T05:09:28.974Z,7.15
2022-11-22T05:11:55.590Z,10.05
2022-11-22T05:14:22.050Z,11.23
2022-11-22T05:16:48.476Z,8.82
2022-11-22T05:19:14.899Z,7.18
2022-11-22T05:21:41.298Z,5.30
2022-11-22T05:24:08.072Z,8.05
2022-11-22T05:26:36.344Z,12.00
2022-11-22T05:29:07.718Z,9.43
2022-11-22T05:31:35.908Z,8.68
2022-11-22T05:34:02.830Z,8.15
2022-11-22T05:36:32.121Z,7.03
2022-11-22T05:41:25.451Z,8.25
2022-11-22T05:44:08.166Z,5.30
2022-11-22T05:46:34.583Z,9.63
2022-11-22T05:49:00.985Z,8.25
2022-11-22T05:51:34.026Z,8.25
2022-11-22T05:54:05.255Z,6.93
2022-11-22T05:56:31.752Z,8.15
2022-11-22T05:58:58.208Z,9.68
2022-11-22T06:01:25.185Z,7.18
2022-11-22T06:03:52.238Z,6.72
2022-11-22T06:06:19.001Z,6.45
2022-11-22T06:08:47.876Z,8.70
2022-11-22T06:11:18.437Z,4.78
2022-11-22T06:13:46.692Z,6.68
2022-11-22T06:16:14.334Z,4.82
2022-11-22T06:18:41.323Z,9.30
2022-11-22T06:21:11.777Z,10.57
2022-11-22T06:23:38.602Z,7.30
2022-11-22T06:26:08.208Z,3.85
2022-11-22T06:28:36.232Z,7.75
2022-11-22T06:31:04.756Z,7.90
2022-11-22T06:33:31.621Z,8.10
2022-11-22T06:36:06.060Z,6.00
2022-11-22T06:38:33.107Z,11.27
2022-11-22T06:41:04.496Z,8.73
2022-11-22T06:43:31.890Z,7.15
2022-11-22T06:45:59.778Z,11.93
2022-11-22T06:48:29.212Z,9.88
2022-11-22T06:51:20.011Z,7.05
2022-11-22T06:53:48.859Z,6.63
2022-11-22T06:56:20.888Z,4.57
2022-11-22T06:58:48.768Z,8.68
2022-11-22T07:01:24.155Z,11.65
2022-11-22T07:03:50.919Z,5.22
2022-11-22T07:06:19.421Z,7.68
2022-11-22T07:08:46.821Z,12.57
2022-11-22T07:11:21.525Z,5.40
2022-11-22T07:13:48.851Z,8.98
2022-11-22T07:16:19.222Z,4.97
2022-11-22T07:18:46.695Z,9.35
2022-11-22T07:21:20.472Z,7.65
2022-11-22T07:23:49.133Z,9.50
2022-11-22T07:26:17.805Z,12.80
2022-11-22T07:28:44.492Z,11.45
2022-11-22T07:31:13.303Z,7.32
2022-11-22T07:33:39.960Z,8.23
2022-11-22T07:36:09.088Z,7.15
2022-11-22T07:38:35.929Z,10.18
2022-11-22T07:41:03.255Z,7.53
2022-11-22T07:43:29.802Z,20.98
2022-11-22T07:46:00.478Z,9.15
2022-11-22T07:48:28.325Z,11.32
2022-11-22T07:50:54.806Z,6.30
2022-11-22T07:53:21.337Z,5.55
2022-11-22T07:55:47.813Z,8.02
2022-11-22T07:58:14.464Z,12.75
2022-11-22T08:00:41.039Z,6.85
2022-11-22T08:03:08.981Z,12.68
2022-11-22T08:05:36.037Z,8.63
2022-11-22T08:08:03.154Z,7.35
2022-11-22T08:10:29.788Z,8.48
2022-11-22T08:13:00.275Z,8.73
2022-11-22T08:15:26.995Z,10.57
2022-11-22T08:17:53.978Z,6.97
2022-11-22T08:20:20.633Z,9.48
2022-11-22T08:22:47.121Z,7.60
2022-11-22T08:25:13.705Z,5.15
2022-11-22T08:27:41.845Z,8.18
2022-11-22T08:30:09.856Z,5.60
2022-11-22T08:32:36.663Z,6.55
2022-11-22T08:35:03.918Z,12.95
2022-11-22T08:37:30.453Z,7.65
2022-11-22T08:39:57.403Z,6.30
2022-11-22T08:42:23.927Z,7.07
2022-11-22T08:44:50.446Z,5.05
2022-11-22T08:47:17.264Z,10.30
2022-11-22T08:49:43.774Z,5.20
2022-11-22T08:52:10.470Z,7.30
2022-11-22T08:54:38.201Z,5.78
2022-11-22T08:57:05.342Z,14.65
2022-11-22T08:59:32.188Z,10.38
2022-11-22T09:01:59.407Z,8.85
2022-11-22T09:04:26.255Z,7.80
2022-11-22T09:09:39.399Z,7.75
2022-11-22T09:12:06.332Z,6.32
2022-11-22T09:14:32.974Z,9.35
2022-11-22T09:16:59.946Z,6.05
2022-11-22T09:19:26.512Z,6.97
2022-11-22T09:21:52.978Z,6.75
2022-11-22T09:24:19.408Z,6.40
2022-11-22T09:26:45.935Z,6.50
2022-11-22T09:29:12.457Z,5.78
2022-11-22T09:31:38.891Z,5.88
2022-11-22T09:34:05.378Z,6.97
2022-11-22T09:36:31.876Z,8.73
2022-11-22T09:38:58.326Z,9.65
2022-11-22T09:41:49.608Z,7.05
2022-11-22T09:44:34.086Z,5.65
2022-11-22T09:47:15.367Z,6.68
2022-11-22T09:50:06.292Z,6.80
2022-11-22T09:52:44.324Z,5.13
2022-11-22T09:55:24.165Z,8.73
2022-11-22T09:58:23.238Z,4.95
2022-11-22T10:00:52.415Z,9.10
2022-11-22T10:03:19.106Z,5.88
2022-11-22T10:06:03.287Z,5.72
2022-11-22T10:08:44.065Z,5.55
2022-11-22T10:11:36.743Z,5.00
2022-11-22T10:14:21.383Z,4.40
2022-11-22T10:16:55.902Z,3.80
2022-11-22T10:20:12.421Z,7.13
2022-11-22T10:22:39.039Z,7.45
2022-11-22T10:25:17.518Z,6.18
2022-11-22T10:27:47.911Z,8.00
2022-11-22T10:30:17.821Z,7.68
2022-11-22T10:33:10.377Z,4.82
2022-11-22T10:36:03.797Z,8.48
2022-11-22T10:38:48.380Z,6.00
2022-11-22T10:41:41.930Z,7.47
2022-11-22T10:44:26.866Z,5.70
2022-11-22T10:47:21.963Z,4.38
2022-11-22T10:50:05.368Z,5.15
2022-11-22T10:53:01.197Z,5.85
2022-11-22T10:55:40.762Z,4.68
2022-11-22T10:58:31.337Z,4.97
2022-11-22T11:01:23.702Z,2.63
2022-11-22T11:03:57.703Z,4.40
2022-11-22T11:12:42.052Z,3.63
2022-11-22T11:15:24.702Z,6.47
2022-11-22T11:17:55.885Z,3.30
2022-11-22T11:20:27.777Z,9.48
2022-11-22T11:25:43.705Z,5.38
2022-11-22T11:28:18.595Z,3.35
2022-11-22T11:31:01.610Z,2.80
2022-11-22T11:33:33.518Z,2.50
2022-11-22T11:36:09.124Z,2.33
2022-11-22T11:38:41.308Z,5.03
2022-11-22T11:41:37.483Z,4.30
2022-11-22T11:44:32.138Z,4.82
2022-11-22T11:46:59.324Z,3.75
2022-11-22T11:49:33.930Z,4.90
2022-11-22T11:52:04.685Z,4.53
2022-11-22T11:54:44.701Z,6.00
2022-11-22T11:57:14.858Z,3.47
2022-11-22T11:59:41.229Z,4.35
2022-11-22T12:02:19.727Z,5.85
2022-11-22T12:05:00.734Z,3.55
2022-11-22T12:07:33.877Z,2.35
2022-11-22T12:10:01.142Z,2.13
2022-11-22T12:12:30.393Z,2.85
2022-11-22T12:15:19.696Z,3.00
2022-11-22T12:17:52.833Z,2.17
2022-11-22T12:20:25.233Z,2.00
2022-11-22T12:23:18.201Z,2.53
2022-11-22T12:25:46.176Z,2.05
2022-11-22T12:28:21.549Z,2.97
2022-11-22T12:31:01.719Z,3.45
2022-11-22T12:33:37.316Z,3.10
2022-11-22T12:36:06.475Z,1.73
2022-11-22T12:41:07.602Z,2.42
2022-11-22T12:43:45.223Z,1.45
2022-11-22T12:46:28.066Z,1.30
2022-11-22T12:49:05.279Z,4.07
2022-11-22T12:51:47.239Z,3.40
2022-11-22T12:54:19.309Z,2.85
2022-11-22T12:56:50.174Z,1.55
2022-11-22T12:59:38.183Z,3.42
2022-11-22T13:02:16.983Z,2.20
2022-11-22T13:04:58.734Z,2.17
2022-11-22T13:07:36.589Z,3.13
2022-11-22T13:10:12.024Z,1.05
2022-11-22T13:12:41.247Z,2.40
2022-11-22T13:15:13.518Z,3.92
2022-11-22T13:17:40.500Z,0.93
2022-11-22T13:20:16.220Z,1.17
2022-11-22T13:22:51.998Z,2.20
2022-11-22T13:25:27.368Z,1.23
2022-11-22T13:27:59.228Z,2.75
2022-11-22T13:30:29.146Z,4.07
2022-11-22T13:32:58.735Z,2.55
2022-11-22T13:35:32.302Z,3.08
2022-11-22T13:38:04.392Z,1.38
2022-11-22T13:40:43.122Z,1.08
2022-11-22T13:43:21.534Z,4.13
2022-11-22T13:45:51.566Z,4.25
2022-11-22T13:48:39.641Z,3.90
2022-11-22T13:51:07.183Z,5.68
2022-11-22T13:53:37.046Z,2.45
2022-11-22T13:56:15.831Z,1.60
2022-11-22T13:58:51.008Z,5.68
2022-11-22T14:01:36.441Z,3.65
2022-11-22T14:04:26.814Z,2.80
2022-11-22T14:07:03.444Z,6.85
2022-11-22T14:09:56.319Z,1.67
2022-11-22T14:12:36.021Z,2.78
2022-11-22T14:15:21.231Z,3.60
2022-11-22T14:18:00.455Z,3.10
2022-11-22T14:21:04.222Z,3.10
2022-11-22T14:23:48.958Z,3.63
2022-11-22T14:26:38.724Z,2.50
2022-11-22T14:29:23.348Z,5.57
2022-11-22T14:32:13.489Z,5.68
2022-11-22T14:35:01.818Z,1.50
2022-11-22T14:37:34.428Z,1.73
2022-11-22T14:40:01.821Z,2.45
2022-11-22T14:42:41.796Z,1.88
2022-11-22T14:45:11.085Z,1.05
2022-11-22T14:48:20.892Z,2.55
2022-11-22T14:51:03.635Z,1.13
2022-11-22T14:53:48.953Z,1.35
2022-11-22T14:56:18.608Z,0.93
2022-11-22T14:59:13.046Z,2.10
2022-11-22T15:02:21.130Z,0.73
2022-11-22T15:09:11.064Z,2.30
2022-11-22T15:09:13.964Z,2.15
2022-11-22T15:11:16.402Z,0.82
2022-11-22T15:14:06.544Z,1.20
2022-11-22T15:59:41.689Z,1.15
2022-11-22T16:02:16.020Z,2.83
2022-11-22T16:06:06.187Z,0.80
2022-11-22T16:07:50.530Z,0.90
2022-11-22T16:10:19.644Z,2.22
2022-11-22T16:12:46.772Z,2.05
2022-11-22T16:15:37.074Z,1.42
2022-11-22T16:18:16.798Z,5.75
2022-11-22T16:20:59.550Z,2.10
2022-11-22T16:23:27.948Z,1.23
2022-11-22T16:25:58.342Z,1.10
2022-11-22T16:28:33.642Z,1.40
2022-11-22T16:31:33.821Z,0.77
2022-11-22T16:34:01.663Z,1.13
2022-11-22T16:36:32.152Z,0.95
2022-11-22T16:38:58.678Z,2.78
2022-11-22T16:41:27.999Z,0.88
2022-11-22T16:44:10.825Z,1.02
2022-11-22T16:46:37.308Z,2.40
2022-11-22T16:49:16.675Z,2.03
2022-11-22T16:51:44.688Z,3.17
2022-11-22T16:54:14.297Z,1.42
2022-11-22T16:56:41.047Z,0.90
2022-11-22T16:59:12.768Z,1.15
2022-11-22T17:01:42.054Z,1.70
2022-11-22T17:04:20.885Z,1.48
2022-11-22T17:06:47.364Z,2.13
2022-11-22T17:09:13.874Z,1.73
2022-11-22T17:11:42.507Z,3.30
2022-11-22T17:14:14.448Z,2.60
2022-11-22T17:16:41.731Z,1.48
2022-11-22T17:19:24.180Z,1.77
2022-11-22T17:21:55.602Z,1.52
2022-11-22T17:24:23.883Z,1.55
2022-11-22T17:26:50.432Z,2.95
2022-11-22T17:29:42.790Z,1.88
2022-11-22T17:32:03.517Z,1.92
2022-11-22T17:34:30.236Z,2.33
2022-11-22T17:36:56.845Z,2.80
2022-11-22T17:39:23.349Z,1.45
2022-11-22T17:41:49.888Z,1.35
2022-11-22T17:44:17.660Z,1.17
2022-11-22T17:46:44.460Z,1.25
2022-11-22T17:49:16.193Z,1.92
2022-11-22T17:51:43.067Z,1.45
2022-11-22T17:54:09.972Z,1.50
2022-11-22T17:56:37.510Z,3.60
2022-11-22T17:59:04.629Z,1.83
2022-11-22T18:01:31.266Z,2.65
2022-11-22T18:03:57.920Z,3.85
2022-11-22T18:06:26.208Z,2.28
2022-11-22T18:08:52.715Z,1.83
2022-11-22T18:11:19.214Z,3.10
2022-11-22T18:13:45.654Z,3.58
2022-11-22T18:16:18.138Z,5.55
2022-11-22T18:19:00.776Z,2.67
2022-11-22T18:21:29.533Z,3.22
2022-11-22T18:24:00.297Z,4.65
2022-11-22T18:26:43.409Z,2.80
2022-11-22T18:31:58.374Z,1.92
2022-11-22T18:34:25.047Z,4.43
2022-11-22T18:37:07.501Z,2.90
2022-11-22T18:39:37.778Z,2.20
2022-11-22T18:42:12.602Z,1.90
2022-11-22T18:44:39.672Z,2.78
2022-11-22T18:47:06.713Z,2.63
2022-11-22T18:49:33.732Z,4.10
2022-11-22T18:52:00.801Z,3.20
2022-11-22T18:54:27.345Z,2.65
2022-11-22T18:56:54.021Z,1.65
2022-11-22T18:59:20.582Z,3.40
2022-11-22T19:01:48.101Z,2.97
2022-11-22T19:04:15.661Z,3.55
2022-11-22T19:06:43.433Z,1.60
2022-11-22T19:09:10.746Z,2.22
2022-11-22T19:11:37.535Z,2.75
2022-11-22T19:14:04.389Z,3.42
2022-11-22T19:16:31.496Z,4.00
2022-11-22T19:18:59.059Z,6.43
2022-11-22T19:21:28.036Z,4.68
2022-11-22T19:23:55.335Z,4.95
2022-11-22T19:26:24.154Z,4.00
2022-11-22T19:28:55.988Z,3.83
2022-11-22T19:31:26.342Z,4.22
2022-11-22T19:33:53.200Z,3.88
2022-11-22T19:36:23.506Z,3.35
2022-11-22T19:38:53.147Z,2.90
2022-11-22T19:41:22.292Z,2.92
2022-11-22T19:43:50.320Z,5.63
2022-11-22T19:46:19.372Z,6.38
2022-11-22T19:48:49.952Z,6.35
2022-11-22T19:51:16.651Z,4.65
2022-11-22T19:53:43.486Z,3.75
2022-11-22T19:56:18.893Z,1.88
2022-11-22T20:01:20.014Z,4.10
2022-11-22T20:03:51.506Z,2.88
2022-11-22T20:06:18.426Z,3.00
2022-11-22T20:08:44.936Z,9.10
2022-11-22T20:11:16.857Z,4.30
2022-11-22T20:13:46.637Z,6.20
2022-11-22T20:16:23.349Z,3.45
2022-11-22T20:18:57.365Z,3.88
2022-11-22T20:21:25.459Z,3.90
2022-11-22T20:23:53.396Z,2.67
2022-11-22T20:26:22.237Z,5.43
2022-11-22T20:28:56.415Z,3.05
2022-11-22T20:31:23.910Z,2.78
2022-11-22T20:33:51.843Z,3.08
2022-11-22T20:36:20.022Z,3.30
2022-11-22T20:38:47.286Z,3.22
2022-11-22T20:41:15.348Z,4.53
2022-11-22T20:43:42.549Z,5.10
2022-11-22T20:46:14.558Z,3.45
2022-11-22T20:48:43.404Z,3.80
2022-11-22T20:51:13.098Z,5.88
2022-11-22T20:53:39.884Z,5.82
2022-11-22T20:56:06.703Z,4.93
2022-11-22T20:58:33.526Z,5.35
2022-11-22T21:01:05.318Z,4.75
2022-11-22T21:03:33.192Z,3.42
2022-11-22T21:06:00.613Z,3.35
2022-11-22T21:08:27.556Z,3.42
2022-11-22T21:11:02.700Z,4.82
2022-11-22T21:13:29.154Z,3.80
2022-11-22T21:16:15.668Z,2.90
2022-11-22T21:18:53.975Z,5.53
2022-11-22T21:21:24.377Z,4.45
2022-11-22T21:23:53.012Z,3.50
2022-11-22T21:26:20.896Z,3.53
2022-11-22T21:28:48.654Z,5.18
2022-11-22T21:31:15.282Z,3.90
2022-11-22T21:33:42.784Z,4.15
2022-11-22T21:36:09.976Z,4.47
2022-11-22T21:38:38.363Z,4.18
2022-11-22T21:41:37.698Z,6.60
2022-11-22T21:43:55.776Z,10.30
2022-11-22T21:46:22.385Z,9.23
2022-11-22T21:48:50.330Z,8.23
2022-11-22T21:51:16.917Z,6.53
2022-11-22T21:53:43.546Z,9.60
2022-11-22T21:56:10.111Z,6.70
2022-11-22T21:58:36.650Z,7.65
2022-11-22T22:01:08.264Z,5.15
2022-11-22T22:03:37.584Z,5.05
2022-11-22T22:06:04.180Z,5.53
2022-11-22T22:08:30.664Z,9.55
2022-11-22T22:11:01.075Z,6.28
2022-11-22T22:13:28.808Z,9.20
2022-11-22T22:16:00.298Z,4.63
2022-11-22T22:18:31.983Z,6.60
2022-11-22T22:21:09.399Z,3.70
2022-11-22T22:23:37.829Z,3.40
2022-11-22T22:26:10.283Z,4.68
2022-11-22T22:28:38.350Z,5.43
2022-11-22T22:31:10.655Z,4.85
2022-11-22T22:33:39.368Z,5.07
2022-11-22T22:36:07.957Z,3.38
2022-11-22T22:38:34.854Z,5.25
2022-11-22T22:41:03.254Z,7.90
2022-11-22T22:43:32.436Z,3.75
2022-11-22T22:46:13.412Z,5.03
2022-11-22T22:48:40.580Z,5.20
2022-11-22T22:51:08.751Z,5.03
2022-11-22T22:53:35.415Z,3.95
2022-11-22T22:56:02.072Z,3.35
2022-11-22T22:58:28.543Z,6.28
2022-11-22T23:00:55.167Z,3.10
2022-11-22T23:03:21.651Z,4.70
2022-11-22T23:05:48.577Z,3.80
2022-11-22T23:08:15.063Z,7.68
2022-11-22T23:10:42.295Z,1.98
2022-11-22T23:13:08.776Z,4.43
2022-11-22T23:15:57.491Z,4.85
2022-11-22T23:18:25.122Z,3.95
2022-11-22T23:20:51.682Z,3.83
2022-11-22T23:23:18.396Z,4.65
2022-11-22T23:25:44.833Z,5.80
2022-11-22T23:28:11.251Z,4.28
2022-11-22T23:30:37.714Z,3.20
2022-11-22T23:33:04.122Z,2.90
2022-11-22T23:35:33.766Z,4.20
2022-11-22T23:38:00.463Z,3.97
2022-11-22T23:40:27.058Z,4.63
2022-11-22T23:42:56.142Z,3.90
2022-11-22T23:45:22.574Z,5.22
2022-11-22T23:47:53.319Z,3.97
2022-11-22T23:50:19.978Z,2.85
2022-11-22T23:52:46.460Z,4.95
2022-11-22T23:55:12.907Z,5.05
2022-11-22T23:57:39.365Z,7.70
